Terminal Aerodrome Forecast
Issued by NWS Atlanta, GA

Home | Current Version | Previous Version | Text Only | Print | Product List | Glossary On
Versions: 1 2 3 4 5 6 7 8 9 10 11 12 13 14 15 16 17 18 19 20 21 22 23 24 25 26 27 28 29 30 31 32 33 34
000
FTUS42 KFFC 221100
TAFCSG
TAF
KCSG 221125Z 2212/2312 07003KT P6SM SCT009 BKN035
      TEMPO 2212/2214 3SM -SHRA BR BKN009
     FM221400 00000KT P6SM BKN025
     FM221600 12005KT P6SM VCSH SCT025 BKN035
      TEMPO 2219/2223 5SM -TSRA BR BKN015CB
     FM230000 10005KT P6SM SCT040 BKN120
     FM230900 00000KT P6SM BKN006=

USA.gov is the U.S. government's official web portal to all federal, state and local government web resources and services.